Погода Гумаитана 2 недели

Амасонас, Бразилия

15 - 28 июля
  • 15июля
    Сегодня
    +20°
    +32°
    Небольшая облачность
    ВремяПогодаТемператураВлажностьДавлениеВетер, м/сВероятность осадков
    02:00Практически безоблачно+22°C88 %756 мм1.5 м/с5 %
    05:00Небольшая облачность+22°C84 %756 мм3.0 м/с5 %
    08:00Ясно и безоблачно+22°C71 %758 мм2.9 м/с5 %
    11:00Практически безоблачно+27°C51 %758 мм2.9 м/с5 %
    14:00Небольшая облачность+31°C45 %756 мм2.9 м/с5 %
    17:00Ясно и безоблачно+31°C52 %755 мм1.9 м/с5 %
    20:00Ясно и безоблачно+26°C66 %756 мм2.0 м/с5 %
    23:00Ясно и безоблачно+24°C74 %757 мм1.8 м/с5 %
  • 16июля
    Вторник
    +22°
    +33°
    Ясно и безоблачно
    ВремяПогодаТемператураВлажностьДавлениеВетер, м/сВероятность осадков
    02:00Ясно и безоблачно+22°C84 %756 мм1.7 м/с5 %
    05:00Ясно и безоблачно+21°C84 %756 мм2.8 м/с5 %
    08:00Ясно и безоблачно+23°C74 %758 мм2.3 м/с5 %
    11:00Ясно и безоблачно+29°C50 %758 мм2.7 м/с5 %
    14:00Ясно и безоблачно+32°C38 %755 мм2.6 м/с5 %
    17:00Ясно и безоблачно+32°C47 %755 мм1.9 м/с5 %
    20:00Ясно и безоблачно+26°C60 %756 мм2.8 м/с5 %
    23:00Ясно и безоблачно+25°C64 %757 мм1.9 м/с5 %
  • 17июля
    Среда
    +22°
    +34°
    Ясно и безоблачно
    ВремяПогодаТемператураВлажностьДавлениеВетер, м/сВероятность осадков
    02:00Ясно и безоблачно+24°C70 %756 мм2.5 м/с5 %
    05:00Ясно и безоблачно+23°C77 %756 мм1.8 м/с5 %
    08:00Ясно и безоблачно+24°C74 %757 мм2.3 м/с5 %
    11:00Ясно и безоблачно+30°C45 %758 мм3.0 м/с5 %
    14:00Ясно и безоблачно+33°C33 %755 мм3.1 м/с5 %
    17:00Небольшая облачность+32°C44 %754 мм2.1 м/с5 %
    20:00Ясно и безоблачно+28°C55 %755 мм2.6 м/с5 %
    23:00Ясно и безоблачно+25°C59 %756 мм2.0 м/с5 %
  • 18июля
    Четверг
    +21°
    +34°
    Практически безоблачно
    ВремяПогодаТемператураВлажностьДавлениеВетер, м/сВероятность осадков
    02:00Ясно и безоблачно+23°C69 %755 мм2.2 м/с5 %
    05:00Ясно и безоблачно+23°C74 %755 мм1.7 м/с5 %
    08:00Ясно и безоблачно+24°C74 %756 мм2.0 м/с5 %
    11:00Ясно и безоблачно+31°C45 %756 мм1.9 м/с5 %
    14:00Практически безоблачно+34°C30 %754 мм1.6 м/с5 %
    17:00Ясно и безоблачно+33°C42 %753 мм0.5 м/с5 %
    20:00Ясно и безоблачно+26°C64 %754 мм1.8 м/с5 %
    23:00Ясно и безоблачно+25°C67 %755 мм1.8 м/с5 %
  • 19июля
    Пятница
    +22°
    +35°
    Ясно и безоблачно
    ВремяПогодаТемператураВлажностьДавлениеВетер, м/сВероятность осадков
    02:00Ясно и безоблачно+23°C76 %754 мм1.7 м/с5 %
    05:00Ясно и безоблачно+22°C80 %754 мм1.7 м/с5 %
    08:00Ясно и безоблачно+24°C72 %756 мм2.1 м/с5 %
    11:00Ясно и безоблачно+32°C39 %756 мм1.6 м/с5 %
    14:00Ясно и безоблачно+34°C30 %754 мм1.5 м/с5 %
    17:00Ясно и безоблачно+33°C40 %753 мм1.6 м/с5 %
    20:00Ясно и безоблачно+27°C49 %754 мм2.6 м/с5 %
    23:00Ясно и безоблачно+26°C63 %755 мм1.9 м/с5 %
Мы используем cookies
Соглашаюсь